createdAt,value
2023-02-19T00:01:06.362Z,1.33
2023-02-19T00:03:33.114Z,1.40
2023-02-19T00:06:02.013Z,1.30
2023-02-19T00:08:29.863Z,1.50
2023-02-19T00:11:02.035Z,1.20
2023-02-19T00:13:28.844Z,1.63
2023-02-19T00:15:55.669Z,1.30
2023-02-19T00:18:22.430Z,2.03
2023-02-19T00:20:49.188Z,1.10
2023-02-19T00:23:15.947Z,1.80
2023-02-19T00:25:42.704Z,1.87
2023-02-19T00:28:10.788Z,1.80
2023-02-19T00:30:37.573Z,2.13
2023-02-19T00:33:04.313Z,1.90
2023-02-19T00:35:33.826Z,1.70
2023-02-19T00:38:00.610Z,1.50
2023-02-19T00:40:27.610Z,1.50
2023-02-19T00:42:54.365Z,1.37
2023-02-19T00:45:22.528Z,1.67
2023-02-19T00:47:49.273Z,1.53
2023-02-19T00:50:16.225Z,2.20
2023-02-19T00:52:43.003Z,1.53
2023-02-19T00:55:09.780Z,1.37
2023-02-19T00:57:36.521Z,1.90
2023-02-19T01:00:03.609Z,1.90
2023-02-19T01:02:31.681Z,1.40
2023-02-19T01:04:58.518Z,1.63
2023-02-19T01:07:25.307Z,1.83
2023-02-19T01:09:52.083Z,1.50
2023-02-19T01:12:18.755Z,1.60
2023-02-19T01:14:45.650Z,1.60
2023-02-19T01:17:12.361Z,1.77
2023-02-19T01:19:40.482Z,1.57
2023-02-19T01:22:07.211Z,1.60
2023-02-19T01:24:33.970Z,1.63
2023-02-19T01:27:00.755Z,1.03
2023-02-19T01:29:27.499Z,1.57
2023-02-19T01:31:54.276Z,1.50
2023-02-19T01:34:21.057Z,2.10
2023-02-19T01:36:49.094Z,2.53
2023-02-19T01:39:15.861Z,2.40
2023-02-19T01:41:42.590Z,2.10
2023-02-19T01:44:47.742Z,3.10
2023-02-19T01:47:17.361Z,2.80
2023-02-19T01:49:48.248Z,2.07
2023-02-19T01:52:21.170Z,2.20
2023-02-19T01:54:49.873Z,2.13
2023-02-19T01:57:20.462Z,2.33
2023-02-19T01:59:49.014Z,2.07
2023-02-19T02:02:16.164Z,1.53
2023-02-19T02:04:43.002Z,2.00
2023-02-19T02:07:09.815Z,1.57
2023-02-19T02:09:37.859Z,1.50
2023-02-19T02:12:04.982Z,2.00
2023-02-19T02:14:35.930Z,2.40
2023-02-19T02:17:14.059Z,1.83
2023-02-19T02:20:01.253Z,2.20
2023-02-19T02:22:32.499Z,2.50
2023-02-19T02:25:27.785Z,2.30
2023-02-19T02:28:05.269Z,2.50
2023-02-19T02:30:39.623Z,2.50
2023-02-19T02:33:16.263Z,2.33
2023-02-19T02:35:47.556Z,1.90
2023-02-19T02:38:16.797Z,2.03
2023-02-19T02:40:44.887Z,1.77
2023-02-19T02:43:12.433Z,1.83
2023-02-19T02:45:41.202Z,2.63
2023-02-19T02:48:16.720Z,1.50
2023-02-19T02:50:48.114Z,2.20
2023-02-19T02:53:18.968Z,1.67
2023-02-19T02:55:49.657Z,2.40
2023-02-19T02:58:17.722Z,1.10
2023-02-19T03:00:53.598Z,1.60
2023-02-19T03:03:24.306Z,1.57
2023-02-19T03:05:53.946Z,1.90
2023-02-19T03:08:26.385Z,1.67
2023-02-19T03:10:58.204Z,1.93
2023-02-19T03:13:30.736Z,1.83
2023-02-19T03:16:06.795Z,1.87
2023-02-19T03:18:35.350Z,1.77
2023-02-19T03:21:04.679Z,1.60
2023-02-19T03:23:34.876Z,1.60
2023-02-19T03:26:01.836Z,1.57
2023-02-19T03:28:32.404Z,1.70
2023-02-19T03:31:00.641Z,1.50
2023-02-19T03:33:29.087Z,1.43
2023-02-19T03:35:59.718Z,0.80
2023-02-19T03:38:30.064Z,1.20
2023-02-19T03:41:02.079Z,0.83
2023-02-19T03:43:37.679Z,0.80
2023-02-19T03:46:10.078Z,1.50
2023-02-19T03:48:41.298Z,1.33
2023-02-19T03:51:18.049Z,1.63
2023-02-19T03:53:53.734Z,1.60
2023-02-19T03:56:27.596Z,1.10
2023-02-19T03:59:01.801Z,1.40
2023-02-19T04:01:36.007Z,1.33
2023-02-19T04:04:08.089Z,1.70
2023-02-19T04:06:37.173Z,1.03
2023-02-19T04:09:09.179Z,1.10
2023-02-19T04:11:37.509Z,2.30
2023-02-19T04:14:09.339Z,2.20
2023-02-19T04:16:41.530Z,1.70
2023-02-19T04:19:12.076Z,0.77
2023-02-19T04:21:40.180Z,1.90
2023-02-19T04:24:12.668Z,2.00
2023-02-19T04:26:40.308Z,1.10
2023-02-19T04:29:07.266Z,1.40
2023-02-19T04:31:38.319Z,1.60
2023-02-19T04:34:05.180Z,0.70
2023-02-19T04:36:32.700Z,1.70
2023-02-19T04:38:59.469Z,1.03
2023-02-19T04:41:26.273Z,1.73
2023-02-19T04:43:53.031Z,1.27
2023-02-19T04:46:19.780Z,1.10
2023-02-19T04:48:47.928Z,1.23
2023-02-19T04:51:14.721Z,2.17
2023-02-19T04:53:41.504Z,0.97
2023-02-19T04:56:09.171Z,1.80
2023-02-19T04:58:36.067Z,1.50
2023-02-19T05:01:03.146Z,1.57
2023-02-19T05:03:29.921Z,0.90
2023-02-19T05:05:58.084Z,1.30
2023-02-19T05:08:24.826Z,1.47
2023-02-19T05:10:51.596Z,1.10
2023-02-19T05:13:18.392Z,1.63
2023-02-19T05:15:55.029Z,1.87
2023-02-19T05:18:21.853Z,1.60
2023-02-19T05:20:49.472Z,0.50
2023-02-19T05:23:17.933Z,1.40
2023-02-19T05:25:44.823Z,1.57
2023-02-19T05:28:11.674Z,1.17
2023-02-19T05:30:38.418Z,1.23
2023-02-19T05:33:05.157Z,1.70
2023-02-19T05:35:31.964Z,1.23
2023-02-19T05:37:58.739Z,1.30
2023-02-19T05:40:26.923Z,1.13
2023-02-19T05:42:53.650Z,1.40
2023-02-19T05:45:20.418Z,1.20
2023-02-19T05:47:47.122Z,1.17
2023-02-19T05:50:13.914Z,1.80
2023-02-19T05:52:40.593Z,1.10
2023-02-19T05:55:07.868Z,1.23
2023-02-19T05:57:42.507Z,1.00
2023-02-19T06:00:12.094Z,1.67
2023-02-19T06:02:39.129Z,1.40
2023-02-19T06:05:07.177Z,1.60
2023-02-19T06:07:34.425Z,1.40
2023-02-19T06:10:01.889Z,1.23
2023-02-19T06:12:28.607Z,1.37
2023-02-19T06:14:56.763Z,1.47
2023-02-19T06:17:23.741Z,0.90
2023-02-19T06:19:50.531Z,2.07
2023-02-19T06:22:17.344Z,2.10
2023-02-19T06:24:44.232Z,2.17
2023-02-19T06:27:11.146Z,2.40
2023-02-19T06:29:37.913Z,2.07
2023-02-19T06:32:06.725Z,2.40
2023-02-19T06:34:34.238Z,1.77
2023-02-19T06:37:01.376Z,2.00
2023-02-19T06:39:28.231Z,1.50
2023-02-19T06:41:55.542Z,1.90
2023-02-19T06:44:22.276Z,1.10
2023-02-19T06:46:49.098Z,1.97
2023-02-19T06:49:17.412Z,1.77
2023-02-19T06:51:44.197Z,1.60
2023-02-19T06:54:10.934Z,1.53
2023-02-19T06:56:39.576Z,1.60
2023-02-19T06:59:09.126Z,1.30
2023-02-19T07:01:37.082Z,1.57
2023-02-19T07:04:04.535Z,1.70
2023-02-19T07:06:33.906Z,2.03
2023-02-19T07:09:01.545Z,1.90
2023-02-19T07:11:30.511Z,2.07
2023-02-19T07:14:00.171Z,2.10
2023-02-19T07:16:27.615Z,2.43
2023-02-19T07:18:56.808Z,2.23
2023-02-19T07:21:23.683Z,1.97
2023-02-19T07:23:52.692Z,1.40
2023-02-19T07:26:21.167Z,2.13
2023-02-19T07:28:49.756Z,1.50
2023-02-19T07:31:18.024Z,1.80
2023-02-19T07:33:45.064Z,1.90
2023-02-19T07:36:12.295Z,2.03
2023-02-19T07:38:39.399Z,1.63
2023-02-19T07:41:07.673Z,1.93
2023-02-19T07:43:36.491Z,1.97
2023-02-19T07:46:03.740Z,1.40
2023-02-19T07:48:30.544Z,2.87
2023-02-19T07:50:59.040Z,3.40
2023-02-19T07:53:27.293Z,2.93
2023-02-19T07:55:54.787Z,7.27
2023-02-19T07:58:22.895Z,3.30
2023-02-19T08:00:49.733Z,5.17
2023-02-19T08:03:16.590Z,1.80
2023-02-19T08:05:43.676Z,2.30
2023-02-19T08:08:12.521Z,5.27
2023-02-19T08:10:39.924Z,8.20
2023-02-19T08:13:06.741Z,4.60
2023-02-19T08:15:34.804Z,3.57
2023-02-19T08:18:01.568Z,3.23
2023-02-19T08:20:28.308Z,8.60
2023-02-19T08:22:55.052Z,3.83
2023-02-19T08:25:21.796Z,2.60
2023-02-19T08:27:48.520Z,4.17
2023-02-19T08:30:15.510Z,4.30
2023-02-19T08:32:43.630Z,3.40
2023-02-19T08:35:10.457Z,3.43
2023-02-19T08:37:37.197Z,15.43
2023-02-19T08:40:04.673Z,6.87
2023-02-19T08:42:31.463Z,5.27
2023-02-19T08:44:58.276Z,2.37
2023-02-19T08:47:25.076Z,2.47
2023-02-19T08:49:56.399Z,2.10
2023-02-19T08:52:23.118Z,1.97
2023-02-19T08:54:49.904Z,2.17
2023-02-19T08:57:23.633Z,2.43
2023-02-19T08:59:50.506Z,2.40
2023-02-19T09:02:17.215Z,2.10
2023-02-19T09:04:44.032Z,3.37
2023-02-19T09:07:12.655Z,2.47
2023-02-19T09:09:54.387Z,1.60
2023-02-19T09:12:21.423Z,2.40
2023-02-19T09:14:48.281Z,3.00
2023-02-19T09:17:15.046Z,2.17
2023-02-19T09:19:41.799Z,2.10
2023-02-19T09:22:08.948Z,1.83
2023-02-19T09:24:41.172Z,1.83
2023-02-19T09:27:17.139Z,2.77
2023-02-19T09:29:51.078Z,2.30
2023-02-19T09:32:19.216Z,1.70
2023-02-19T09:34:46.386Z,1.70
2023-02-19T09:37:13.388Z,2.13
2023-02-19T09:39:41.727Z,1.80
2023-02-19T09:42:17.722Z,1.80
2023-02-19T09:44:47.783Z,1.80
2023-02-19T09:47:17.969Z,1.47
2023-02-19T09:49:47.348Z,1.70
2023-02-19T09:52:18.280Z,1.37
2023-02-19T09:54:47.469Z,2.80
2023-02-19T09:57:16.935Z,2.10
2023-02-19T09:59:46.725Z,1.50
2023-02-19T10:02:15.993Z,2.67
2023-02-19T10:04:44.108Z,2.00
2023-02-19T10:07:12.646Z,1.87
2023-02-19T10:09:39.778Z,2.30
2023-02-19T10:12:15.378Z,2.13
2023-02-19T10:14:46.955Z,2.30
2023-02-19T10:17:22.373Z,3.30
2023-02-19T10:19:49.373Z,2.63
2023-02-19T10:22:16.219Z,3.07
2023-02-19T10:24:44.507Z,2.47
2023-02-19T10:27:14.912Z,2.83
2023-02-19T10:29:43.686Z,2.90
2023-02-19T10:32:15.922Z,2.77
2023-02-19T10:34:42.735Z,2.00
2023-02-19T10:37:13.447Z,2.37
2023-02-19T10:39:42.896Z,1.47
2023-02-19T10:42:22.202Z,1.60
2023-02-19T10:44:54.046Z,1.23
2023-02-19T10:47:23.649Z,1.77
2023-02-19T10:49:51.778Z,1.50
2023-02-19T10:52:24.102Z,1.43
2023-02-19T10:54:52.685Z,1.97
2023-02-19T10:57:29.743Z,1.67
2023-02-19T10:59:58.350Z,1.63
2023-02-19T11:02:26.122Z,1.70
2023-02-19T11:05:15.924Z,1.30
2023-02-19T11:07:45.991Z,1.27
2023-02-19T11:10:23.824Z,1.10
2023-02-19T11:12:54.439Z,1.40
2023-02-19T11:15:23.543Z,1.50
2023-02-19T11:18:04.740Z,1.70
2023-02-19T11:20:31.983Z,1.50
2023-02-19T11:23:01.087Z,1.93
2023-02-19T11:25:28.273Z,1.20
2023-02-19T11:28:05.911Z,1.60
2023-02-19T11:30:39.027Z,0.90
2023-02-19T11:33:27.384Z,1.33
2023-02-19T11:36:16.383Z,1.30
2023-02-19T11:38:43.209Z,1.40
2023-02-19T11:41:18.492Z,1.27
2023-02-19T11:44:01.479Z,2.30
2023-02-19T11:46:37.623Z,1.43
2023-02-19T11:49:17.133Z,1.00
2023-02-19T11:51:55.872Z,1.20
2023-02-19T11:54:43.086Z,1.60
2023-02-19T11:57:19.500Z,1.13
2023-02-19T11:59:51.538Z,1.60
2023-02-19T12:02:46.136Z,1.50
2023-02-19T12:05:34.381Z,0.90
2023-02-19T12:08:26.378Z,0.97
2023-02-19T12:11:23.412Z,1.83
2023-02-19T12:14:09.088Z,0.87
2023-02-19T12:16:43.692Z,1.00
2023-02-19T12:19:27.577Z,1.57
2023-02-19T12:22:07.289Z,1.47
2023-02-19T12:25:10.894Z,0.83
2023-02-19T12:27:54.860Z,0.80
2023-02-19T12:30:37.097Z,1.27
2023-02-19T12:34:00.404Z,1.40
2023-02-19T12:36:35.291Z,1.13
2023-02-19T12:39:10.024Z,1.23
2023-02-19T12:41:42.956Z,1.73
2023-02-19T12:44:14.983Z,0.90
2023-02-19T12:46:45.971Z,1.23
2023-02-19T12:49:19.106Z,4.50
2023-02-19T12:51:48.870Z,4.07
2023-02-19T12:54:22.979Z,2.37
2023-02-19T12:56:54.909Z,1.30
2023-02-19T12:59:25.965Z,1.50
2023-02-19T13:01:58.569Z,1.60
2023-02-19T13:04:35.030Z,0.77
2023-02-19T13:07:05.428Z,2.30
2023-02-19T13:09:37.128Z,1.00
2023-02-19T13:12:08.235Z,0.73
2023-02-19T13:14:39.771Z,0.60
2023-02-19T13:17:17.069Z,1.00
2023-02-19T13:19:48.461Z,1.10
2023-02-19T13:22:23.108Z,1.40
2023-02-19T13:24:51.011Z,1.37
2023-02-19T13:27:48.905Z,0.97
2023-02-19T13:30:40.931Z,1.10
2023-02-19T13:33:22.797Z,1.23
2023-02-19T13:36:04.938Z,1.07
2023-02-19T13:38:32.474Z,1.47
2023-02-19T13:41:00.175Z,0.93
2023-02-19T13:43:30.339Z,1.13
2023-02-19T13:45:59.114Z,0.70
2023-02-19T13:48:28.268Z,1.70
2023-02-19T13:51:28.284Z,1.20
2023-02-19T13:54:00.004Z,1.30
2023-02-19T13:56:38.036Z,1.50
2023-02-19T13:59:36.243Z,0.97
2023-02-19T14:02:14.142Z,1.47
2023-02-19T14:04:44.366Z,1.03
2023-02-19T14:07:48.629Z,0.90
2023-02-19T14:10:57.181Z,1.27
2023-02-19T14:13:55.340Z,1.10
2023-02-19T14:16:50.561Z,1.10
2023-02-19T14:19:57.143Z,0.80
2023-02-19T14:22:46.380Z,1.63
2023-02-19T14:25:33.141Z,1.90
2023-02-19T14:28:02.857Z,1.10
2023-02-19T14:30:31.262Z,1.00
2023-02-19T14:33:10.329Z,0.80
2023-02-19T14:35:41.151Z,1.13
2023-02-19T14:38:16.782Z,1.10
2023-02-19T14:40:47.274Z,1.30
2023-02-19T14:43:17.105Z,0.90
2023-02-19T14:45:48.810Z,1.00
2023-02-19T14:48:19.771Z,0.70
2023-02-19T14:50:50.050Z,1.20
2023-02-19T14:53:18.632Z,1.07
2023-02-19T14:55:48.232Z,0.90
2023-02-19T14:58:18.061Z,1.10
2023-02-19T15:00:44.836Z,0.90
2023-02-19T15:03:29.159Z,1.67
2023-02-19T15:05:58.800Z,1.27
2023-02-19T15:08:31.271Z,1.33
2023-02-19T15:11:00.876Z,1.10
2023-02-19T15:13:30.824Z,0.97
2023-02-19T15:15:58.426Z,1.43
2023-02-19T15:18:27.267Z,1.23
2023-02-19T15:21:01.005Z,1.30
2023-02-19T15:23:29.125Z,1.10
2023-02-19T15:25:56.143Z,0.93
2023-02-19T15:28:30.921Z,1.00
2023-02-19T15:31:06.763Z,0.87
2023-02-19T15:33:34.200Z,1.00
2023-02-19T15:36:04.376Z,1.73
2023-02-19T15:38:31.614Z,1.10
2023-02-19T15:40:58.917Z,1.10
2023-02-19T15:43:33.064Z,0.90
2023-02-19T15:46:03.299Z,1.10
2023-02-19T15:48:36.767Z,0.83
2023-02-19T15:51:10.026Z,1.00
2023-02-19T15:53:42.540Z,1.20
2023-02-19T15:56:15.725Z,0.80
2023-02-19T15:58:47.651Z,1.77
2023-02-19T16:01:19.608Z,2.40
2023-02-19T16:03:47.123Z,1.80
2023-02-19T16:06:15.584Z,2.47
2023-02-19T16:08:44.278Z,1.30
2023-02-19T16:11:27.311Z,2.40
2023-02-19T16:14:16.342Z,2.03
2023-02-19T16:16:46.276Z,1.50
2023-02-19T16:19:13.201Z,1.10
2023-02-19T16:21:44.178Z,1.80
2023-02-19T16:24:18.287Z,1.80
2023-02-19T16:26:46.013Z,1.47
2023-02-19T16:29:20.876Z,1.47
2023-02-19T16:31:50.629Z,1.43
2023-02-19T16:34:18.640Z,1.33
2023-02-19T16:36:57.179Z,1.23
2023-02-19T16:39:34.648Z,1.77
2023-02-19T16:42:16.771Z,1.40
2023-02-19T16:44:44.085Z,2.83
2023-02-19T16:47:25.231Z,3.67
2023-02-19T16:49:52.441Z,2.10
2023-02-19T16:52:23.536Z,2.37
2023-02-19T16:54:50.461Z,3.50
2023-02-19T16:57:17.564Z,4.27
2023-02-19T16:59:44.308Z,2.90
2023-02-19T17:02:18.522Z,4.30
2023-02-19T17:04:46.681Z,3.13
2023-02-19T17:07:15.342Z,2.23
2023-02-19T17:09:42.101Z,2.83
2023-02-19T17:12:11.522Z,2.37
2023-02-19T17:14:38.263Z,2.90
2023-02-19T17:17:05.006Z,1.90
2023-02-19T17:19:33.134Z,2.50
2023-02-19T17:21:59.917Z,2.30
2023-02-19T17:24:26.683Z,1.90
2023-02-19T17:26:53.502Z,2.30
2023-02-19T17:29:20.269Z,4.23
2023-02-19T17:31:47.160Z,5.07
2023-02-19T17:34:15.770Z,4.23
2023-02-19T17:36:43.980Z,3.40
2023-02-19T17:39:13.308Z,2.10
2023-02-19T17:41:40.075Z,3.53
2023-02-19T17:44:06.922Z,2.37
2023-02-19T17:46:33.654Z,3.50
2023-02-19T17:49:00.410Z,4.03
2023-02-19T17:51:27.176Z,5.30
2023-02-19T17:53:55.421Z,3.90
2023-02-19T17:56:24.913Z,3.10
2023-02-19T17:58:52.175Z,3.40
2023-02-19T18:01:19.000Z,3.10
2023-02-19T18:03:45.869Z,3.30
2023-02-19T18:06:13.014Z,4.43
2023-02-19T18:08:39.728Z,4.20
2023-02-19T18:11:08.095Z,3.40
2023-02-19T18:13:34.808Z,3.23
2023-02-19T18:16:01.722Z,3.10
2023-02-19T18:18:28.534Z,2.80
2023-02-19T18:20:55.265Z,3.17
2023-02-19T18:23:22.270Z,2.47
2023-02-19T18:25:49.090Z,2.70
2023-02-19T18:28:17.506Z,3.53
2023-02-19T18:30:44.491Z,3.97
2023-02-19T18:33:11.281Z,2.60
2023-02-19T18:35:38.074Z,2.30
2023-02-19T18:38:04.964Z,2.23
2023-02-19T18:40:31.680Z,2.63
2023-02-19T18:42:58.432Z,2.20
2023-02-19T18:45:26.917Z,2.57
2023-02-19T18:47:53.661Z,1.83
2023-02-19T18:50:20.524Z,2.90
2023-02-19T18:52:47.320Z,2.80
2023-02-19T18:55:14.245Z,2.27
2023-02-19T18:57:40.969Z,1.73
2023-02-19T19:00:08.576Z,2.83
2023-02-19T19:02:48.890Z,1.83
2023-02-19T19:05:17.755Z,2.40
2023-02-19T19:07:44.549Z,1.97
2023-02-19T19:10:11.396Z,1.90
2023-02-19T19:12:38.144Z,3.20
2023-02-19T19:15:05.201Z,2.87
2023-02-19T19:17:31.962Z,1.70
2023-02-19T19:20:00.040Z,2.03
2023-02-19T19:22:27.052Z,2.80
2023-02-19T19:24:53.729Z,2.40
2023-02-19T19:27:20.979Z,3.47
2023-02-19T19:29:47.952Z,2.30
2023-02-19T19:32:14.815Z,2.93
2023-02-19T19:34:41.678Z,3.73
2023-02-19T19:37:09.966Z,3.70
2023-02-19T19:39:36.746Z,2.80
2023-02-19T19:42:03.762Z,2.73
2023-02-19T19:44:30.534Z,2.70
2023-02-19T19:46:57.275Z,3.80
2023-02-19T19:49:24.379Z,3.00
2023-02-19T19:51:51.091Z,2.80
2023-02-19T19:54:19.477Z,3.30
2023-02-19T19:56:47.501Z,3.23
2023-02-19T19:59:16.019Z,3.23
2023-02-19T20:01:48.125Z,2.63
2023-02-19T20:04:14.904Z,3.50
2023-02-19T20:06:41.645Z,3.50
2023-02-19T20:09:08.390Z,4.13
2023-02-19T20:11:43.674Z,2.60
2023-02-19T20:14:10.467Z,2.40
2023-02-19T20:16:37.208Z,2.40
2023-02-19T20:19:03.988Z,2.90
2023-02-19T20:21:30.670Z,2.27
2023-02-19T20:23:57.452Z,3.17
2023-02-19T20:26:24.807Z,2.20
2023-02-19T20:28:53.626Z,2.87
2023-02-19T20:31:21.482Z,2.33
2023-02-19T20:33:48.641Z,2.37
2023-02-19T20:36:15.517Z,2.50
2023-02-19T20:38:42.304Z,2.60
2023-02-19T20:41:10.210Z,2.63
2023-02-19T20:43:37.344Z,2.53
2023-02-19T20:46:05.460Z,2.93
2023-02-19T20:48:32.210Z,2.27
2023-02-19T20:50:59.229Z,2.70
2023-02-19T20:53:26.053Z,2.87
2023-02-19T20:55:52.883Z,2.87
2023-02-19T20:58:21.024Z,2.50
2023-02-19T21:00:48.006Z,3.33
2023-02-19T21:03:16.149Z,3.43
2023-02-19T21:05:42.970Z,2.43
2023-02-19T21:08:09.732Z,2.53
2023-02-19T21:10:36.448Z,2.57
2023-02-19T21:13:03.221Z,2.43
2023-02-19T21:15:29.934Z,2.90
2023-02-19T21:17:56.667Z,2.53
2023-02-19T21:20:24.895Z,2.97
2023-02-19T21:22:51.741Z,2.50
2023-02-19T21:25:18.455Z,2.87
2023-02-19T21:27:45.221Z,2.70
2023-02-19T21:30:12.468Z,2.03
2023-02-19T21:32:39.416Z,2.83
2023-02-19T21:35:06.691Z,3.30
2023-02-19T21:37:34.806Z,2.23
2023-02-19T21:40:01.618Z,2.53
2023-02-19T21:42:28.667Z,3.33
2023-02-19T21:44:55.461Z,2.57
2023-02-19T21:47:22.191Z,2.73
2023-02-19T21:49:48.936Z,3.23
2023-02-19T21:52:15.737Z,2.43
2023-02-19T21:54:43.804Z,3.27
2023-02-19T21:57:10.596Z,3.33
2023-02-19T21:59:37.311Z,2.57
2023-02-19T22:02:04.183Z,2.30
2023-02-19T22:04:30.853Z,2.13
2023-02-19T22:06:57.549Z,3.03
2023-02-19T22:09:24.555Z,3.10
2023-02-19T22:11:52.732Z,2.53
2023-02-19T22:14:19.470Z,2.40
2023-02-19T22:16:46.662Z,2.60
2023-02-19T22:19:13.695Z,2.50
2023-02-19T22:21:43.100Z,2.30
2023-02-19T22:24:15.091Z,2.43
2023-02-19T22:26:42.347Z,3.27
2023-02-19T22:29:11.990Z,3.00
2023-02-19T22:31:38.957Z,2.60
2023-02-19T22:34:06.120Z,3.17
2023-02-19T22:36:34.060Z,3.63
2023-02-19T22:39:01.418Z,3.87
2023-02-19T22:41:28.532Z,4.03
2023-02-19T22:43:55.973Z,2.83
2023-02-19T22:46:26.180Z,3.47
2023-02-19T22:48:52.892Z,3.33
2023-02-19T22:51:21.316Z,3.33
2023-02-19T22:53:49.751Z,3.23
2023-02-19T22:56:18.122Z,3.23
2023-02-19T22:58:45.250Z,3.30
2023-02-19T23:01:13.694Z,2.93
2023-02-19T23:03:50.063Z,3.70
2023-02-19T23:06:20.619Z,3.10
2023-02-19T23:08:47.442Z,3.43
2023-02-19T23:11:19.794Z,2.97
2023-02-19T23:13:46.567Z,3.73
2023-02-19T23:16:13.499Z,3.77
2023-02-19T23:18:40.417Z,3.90
2023-02-19T23:21:08.627Z,4.07
2023-02-19T23:23:35.438Z,2.83
2023-02-19T23:26:02.971Z,3.77
2023-02-19T23:28:29.721Z,3.47
2023-02-19T23:30:56.498Z,3.27
2023-02-19T23:33:23.359Z,4.80
2023-02-19T23:35:50.162Z,3.23
2023-02-19T23:38:18.266Z,4.17
2023-02-19T23:40:45.041Z,4.30
2023-02-19T23:43:11.816Z,3.43
2023-02-19T23:45:38.574Z,2.93
2023-02-19T23:48:05.481Z,3.57
2023-02-19T23:50:32.257Z,3.17
2023-02-19T23:52:58.982Z,2.93
2023-02-19T23:55:27.217Z,3.90
2023-02-19T23:57:54.109Z,3.33
